Main page
METAR-TAF:

METAR-TAF

Airports :

Utti Airport

Utti, Finland

latitude: 60-54N, longitude: 026-56E, elevation: 100 m

Current weather observation

The report was made 43 minutes ago, at 16:20 UTC
Wind 7 kt from the Southwest
Temperature 19°C
Humidity 37%
Pressure 1015 hPa
Visibility 10 km or more
no clouds below 1500 m and no cumulonimbus

METAR: EFUT 151620Z AUTO 22007KT CAVOK 19/04 Q1015

Time: 20:03 (17:03 UTC)


TAF: missing

Weather observations and forecasts of more than 4000 airports (METAR and TAF reports).

The available stations are represented by yellow and red dots on the map.

Hover mouse over dot to see the name of the station.

Then click to see weather observations and forecasts.

To change the map : click on the green buttons with a black cross to zoom in, on the green button with a dash to zoom out, or on the green arrows for adjacent maps.


METAR-TAF: